sensor_id;sensor_type;location;lat;lon;timestamp;pressure;altitude;pressure_sealevel;temperature;humidity
77005;BME280;67261;53.132;18.006;2023-04-09T18:14:07;102052.61;;;10.77;67.91
77005;BME280;67261;53.132;18.006;2023-04-09T18:16:34;102053.71;;;10.70;67.96
77005;BME280;67261;53.132;18.006;2023-04-09T18:19:04;102058.39;;;10.65;68.26
77005;BME280;67261;53.132;18.006;2023-04-09T18:21:33;102059.80;;;10.59;68.38
77005;BME280;67261;53.132;18.006;2023-04-09T18:24:03;102059.92;;;10.52;68.75
77005;BME280;67261;53.132;18.006;2023-04-09T18:26:31;102063.18;;;10.47;69.05
77005;BME280;67261;53.132;18.006;2023-04-09T18:29:00;102067.99;;;10.42;69.21
77005;BME280;67261;53.132;18.006;2023-04-09T18:31:28;102070.36;;;10.37;69.61
77005;BME280;67261;53.132;18.006;2023-04-09T18:33:55;102070.06;;;10.31;70.04
77005;BME280;67261;53.132;18.006;2023-04-09T18:36:23;102070.78;;;10.27;70.28
77005;BME280;67261;53.132;18.006;2023-04-09T18:38:50;102075.52;;;10.23;70.32
77005;BME280;67261;53.132;18.006;2023-04-09T18:41:25;102075.38;;;10.18;70.45
77005;BME280;67261;53.132;18.006;2023-04-09T18:43:52;102080.00;;;10.13;70.68
77005;BME280;67261;53.132;18.006;2023-04-09T18:46:20;102081.25;;;10.08;70.75
77005;BME280;67261;53.132;18.006;2023-04-09T18:48:47;102083.22;;;10.05;70.81
77005;BME280;67261;53.132;18.006;2023-04-09T18:51:14;102085.00;;;10.00;70.96
77005;BME280;67261;53.132;18.006;2023-04-09T18:53:42;102084.58;;;9.97;71.14
77005;BME280;67261;53.132;18.006;2023-04-09T18:56:09;102083.65;;;9.93;71.02
77005;BME280;67261;53.132;18.006;2023-04-09T18:58:37;102081.98;;;9.87;71.28
77005;BME280;67261;53.132;18.006;2023-04-09T19:01:09;102088.07;;;9.86;71.49
77005;BME280;67261;53.132;18.006;2023-04-09T19:03:38;102089.06;;;9.82;71.66
77005;BME280;67261;53.132;18.006;2023-04-09T19:06:13;102090.66;;;9.80;71.58
77005;BME280;67261;53.132;18.006;2023-04-09T19:08:40;102093.36;;;9.77;71.87
77005;BME280;67261;53.132;18.006;2023-04-09T19:11:07;102095.17;;;9.74;71.85
77005;BME280;67261;53.132;18.006;2023-04-09T19:13:36;102095.92;;;9.69;72.02
77005;BME280;67261;53.132;18.006;2023-04-09T19:16:04;102105.95;;;9.64;71.95
77005;BME280;67261;53.132;18.006;2023-04-09T19:18:33;102105.02;;;9.60;71.91
77005;BME280;67261;53.132;18.006;2023-04-09T19:21:00;102105.41;;;9.55;72.11
77005;BME280;67261;53.132;18.006;2023-04-09T19:23:27;102104.59;;;9.49;72.22
77005;BME280;67261;53.132;18.006;2023-04-09T19:25:55;102109.91;;;9.44;72.49
77005;BME280;67261;53.132;18.006;2023-04-09T19:28:23;102112.88;;;9.40;72.40
77005;BME280;67261;53.132;18.006;2023-04-09T19:30:50;102117.23;;;9.36;72.54
77005;BME280;67261;53.132;18.006;2023-04-09T19:33:22;102119.11;;;9.32;72.67
77005;BME280;67261;53.132;18.006;2023-04-09T19:35:51;102110.41;;;9.23;72.71
77005;BME280;67261;53.132;18.006;2023-04-09T19:38:19;102126.38;;;9.24;73.08
77005;BME280;67261;53.132;18.006;2023-04-09T19:40:46;102123.37;;;9.20;73.09
77005;BME280;67261;53.132;18.006;2023-04-09T19:43:14;102129.16;;;9.18;73.51
77005;BME280;67261;53.132;18.006;2023-04-09T19:45:42;102128.14;;;9.15;73.75
77005;BME280;67261;53.132;18.006;2023-04-09T19:48:11;102133.07;;;9.13;73.97
77005;BME280;67261;53.132;18.006;2023-04-09T19:50:38;102137.08;;;9.11;73.46
77005;BME280;67261;53.132;18.006;2023-04-09T19:53:11;102138.77;;;9.09;73.33
77005;BME280;67261;53.132;18.006;2023-04-09T19:55:38;102143.53;;;9.07;73.33
77005;BME280;67261;53.132;18.006;2023-04-09T19:58:05;102143.30;;;9.03;73.42
77005;BME280;67261;53.132;18.006;2023-04-09T20:00:33;102152.04;;;9.02;73.40
77005;BME280;67261;53.132;18.006;2023-04-09T20:03:01;102148.82;;;9.00;73.17
77005;BME280;67261;53.132;18.006;2023-04-09T20:05:28;102152.64;;;8.98;73.25
77005;BME280;67261;53.132;18.006;2023-04-09T20:07:57;102154.95;;;8.96;72.95
77005;BME280;67261;53.132;18.006;2023-04-09T20:10:26;102158.52;;;8.95;72.74
77005;BME280;67261;53.132;18.006;2023-04-09T20:12:53;102159.33;;;8.96;72.71
77005;BME280;67261;53.132;18.006;2023-04-09T20:15:20;102163.15;;;8.97;72.72
77005;BME280;67261;53.132;18.006;2023-04-09T20:17:48;102164.60;;;8.96;72.79
77005;BME280;67261;53.132;18.006;2023-04-09T20:20:16;102167.94;;;8.94;72.50
77005;BME280;67261;53.132;18.006;2023-04-09T20:22:46;102164.71;;;8.92;72.35
77005;BME280;67261;53.132;18.006;2023-04-09T20:25:19;102164.80;;;8.89;71.91
77005;BME280;67261;53.132;18.006;2023-04-09T20:27:47;102162.96;;;8.82;71.27
77005;BME280;67261;53.132;18.006;2023-04-09T20:30:15;102160.55;;;8.76;71.12
77005;BME280;67261;53.132;18.006;2023-04-09T20:32:42;102158.56;;;8.72;70.91
77005;BME280;67261;53.132;18.006;2023-04-09T20:35:09;102157.42;;;8.66;70.95
77005;BME280;67261;53.132;18.006;2023-04-09T20:37:38;102152.60;;;8.61;70.93
77005;BME280;67261;53.132;18.006;2023-04-09T20:40:05;102157.66;;;8.57;70.94
77005;BME280;67261;53.132;18.006;2023-04-09T20:42:33;102160.05;;;8.53;71.15
77005;BME280;67261;53.132;18.006;2023-04-09T20:45:00;102158.20;;;8.47;71.11
77005;BME280;67261;53.132;18.006;2023-04-09T20:47:27;102161.52;;;8.42;71.20
77005;BME280;67261;53.132;18.006;2023-04-09T20:49:54;102160.91;;;8.38;71.56
77005;BME280;67261;53.132;18.006;2023-04-09T20:52:26;102159.93;;;8.35;71.65
77005;BME280;67261;53.132;18.006;2023-04-09T20:54:56;102162.24;;;8.31;71.76
77005;BME280;67261;53.132;18.006;2023-04-09T20:57:23;102164.26;;;8.28;71.73
77005;BME280;67261;53.132;18.006;2023-04-09T20:59:51;102162.98;;;8.23;71.17
77005;BME280;67261;53.132;18.006;2023-04-09T21:02:21;102160.41;;;8.17;70.35
77005;BME280;67261;53.132;18.006;2023-04-09T21:04:48;102157.20;;;8.09;69.82
77005;BME280;67261;53.132;18.006;2023-04-09T21:07:15;102153.60;;;8.03;69.70
77005;BME280;67261;53.132;18.006;2023-04-09T21:09:42;102155.61;;;7.96;69.60
77005;BME280;67261;53.132;18.006;2023-04-09T21:12:09;102156.55;;;7.90;69.46
77005;BME280;67261;53.132;18.006;2023-04-09T21:14:37;102153.95;;;7.84;69.50
77005;BME280;67261;53.132;18.006;2023-04-09T21:17:04;102147.17;;;7.78;69.23
77005;BME280;67261;53.132;18.006;2023-04-09T21:19:31;102147.23;;;7.74;69.16
77005;BME280;67261;53.132;18.006;2023-04-09T21:22:01;102150.27;;;7.68;69.07
77005;BME280;67261;53.132;18.006;2023-04-09T21:24:28;102156.52;;;7.64;69.08
77005;BME280;67261;53.132;18.006;2023-04-09T21:26:56;102150.58;;;7.58;68.97
77005;BME280;67261;53.132;18.006;2023-04-09T21:29:24;102153.98;;;7.54;69.10
77005;BME280;67261;53.132;18.006;2023-04-09T21:31:51;102153.02;;;7.50;68.89
77005;BME280;67261;53.132;18.006;2023-04-09T21:34:18;102155.44;;;7.45;68.79
77005;BME280;67261;53.132;18.006;2023-04-09T21:36:45;102158.00;;;7.41;68.39
77005;BME280;67261;53.132;18.006;2023-04-09T21:39:13;102153.70;;;7.37;68.36
77005;BME280;67261;53.132;18.006;2023-04-09T21:41:41;102154.98;;;7.34;68.01
77005;BME280;67261;53.132;18.006;2023-04-09T21:44:08;102155.12;;;7.29;67.78
77005;BME280;67261;53.132;18.006;2023-04-09T21:46:36;102152.98;;;7.24;67.64
77005;BME280;67261;53.132;18.006;2023-04-09T21:49:03;102154.74;;;7.18;67.51
77005;BME280;67261;53.132;18.006;2023-04-09T21:51:30;102153.99;;;7.13;67.88
77005;BME280;67261;53.132;18.006;2023-04-09T21:54:05;102158.42;;;7.10;67.56
77005;BME280;67261;53.132;18.006;2023-04-09T21:56:33;102161.51;;;7.06;67.75
77005;BME280;67261;53.132;18.006;2023-04-09T21:59:01;102163.27;;;7.03;67.84
77005;BME280;67261;53.132;18.006;2023-04-09T22:01:29;102164.21;;;7.02;67.80
77005;BME280;67261;53.132;18.006;2023-04-09T22:03:57;102164.59;;;7.01;67.86
77005;BME280;67261;53.132;18.006;2023-04-09T22:06:26;102161.43;;;6.99;67.60
77005;BME280;67261;53.132;18.006;2023-04-09T22:08:53;102160.48;;;6.97;67.73
77005;BME280;67261;53.132;18.006;2023-04-09T22:11:23;102163.20;;;6.96;67.58
77005;BME280;67261;53.132;18.006;2023-04-09T22:13:53;102159.07;;;6.94;67.49
77005;BME280;67261;53.132;18.006;2023-04-09T22:16:21;102156.38;;;6.92;67.41
77005;BME280;67261;53.132;18.006;2023-04-09T22:18:48;102154.48;;;6.89;67.51
77005;BME280;67261;53.132;18.006;2023-04-09T22:21:15;102158.29;;;6.87;67.84
77005;BME280;67261;53.132;18.006;2023-04-09T22:23:42;102153.77;;;6.86;67.81
77005;BME280;67261;53.132;18.006;2023-04-09T22:26:09;102152.39;;;6.86;67.71
77005;BME280;67261;53.132;18.006;2023-04-09T22:28:36;102148.38;;;6.85;67.56
77005;BME280;67261;53.132;18.006;2023-04-09T22:31:04;102144.14;;;6.83;67.61
77005;BME280;67261;53.132;18.006;2023-04-09T22:33:31;102144.95;;;6.84;67.89
77005;BME280;67261;53.132;18.006;2023-04-09T22:35:58;102144.77;;;6.84;67.65
77005;BME280;67261;53.132;18.006;2023-04-09T22:38:26;102148.80;;;6.84;67.72
77005;BME280;67261;53.132;18.006;2023-04-09T22:40:53;102146.66;;;6.82;67.40
77005;BME280;67261;53.132;18.006;2023-04-09T22:43:20;102146.05;;;6.78;67.41
77005;BME280;67261;53.132;18.006;2023-04-09T22:45:48;102147.48;;;6.74;67.50
77005;BME280;67261;53.132;18.006;2023-04-09T22:48:17;102148.05;;;6.70;67.49
77005;BME280;67261;53.132;18.006;2023-04-09T22:50:45;102148.94;;;6.68;67.27
77005;BME280;67261;53.132;18.006;2023-04-09T22:53:12;102155.56;;;6.63;67.33
77005;BME280;67261;53.132;18.006;2023-04-09T22:55:45;102153.77;;;6.60;67.38
77005;BME280;67261;53.132;18.006;2023-04-09T22:58:14;102153.33;;;6.59;67.43
77005;BME280;67261;53.132;18.006;2023-04-09T23:00:42;102149.55;;;6.57;67.48
77005;BME280;67261;53.132;18.006;2023-04-09T23:03:09;102147.14;;;6.57;67.34
77005;BME280;67261;53.132;18.006;2023-04-09T23:05:36;102148.23;;;6.53;67.31
77005;BME280;67261;53.132;18.006;2023-04-09T23:08:04;102150.80;;;6.49;67.45
77005;BME280;67261;53.132;18.006;2023-04-09T23:10:31;102148.68;;;6.46;67.56
77005;BME280;67261;53.132;18.006;2023-04-09T23:12:59;102148.38;;;6.45;67.57
77005;BME280;67261;53.132;18.006;2023-04-09T23:15:26;102147.89;;;6.44;67.40
77005;BME280;67261;53.132;18.006;2023-04-09T23:17:54;102150.38;;;6.44;67.36
77005;BME280;67261;53.132;18.006;2023-04-09T23:20:21;102143.85;;;6.41;67.56
77005;BME280;67261;53.132;18.006;2023-04-09T23:22:48;102144.20;;;6.39;67.63
77005;BME280;67261;53.132;18.006;2023-04-09T23:25:16;102141.52;;;6.37;67.65
77005;BME280;67261;53.132;18.006;2023-04-09T23:27:43;102138.27;;;6.32;67.60
77005;BME280;67261;53.132;18.006;2023-04-09T23:30:11;102131.73;;;6.30;67.61
77005;BME280;67261;53.132;18.006;2023-04-09T23:32:45;102134.40;;;6.29;67.74
77005;BME280;67261;53.132;18.006;2023-04-09T23:35:13;102136.66;;;6.30;67.87
77005;BME280;67261;53.132;18.006;2023-04-09T23:37:41;102138.15;;;6.29;67.63
77005;BME280;67261;53.132;18.006;2023-04-09T23:40:09;102138.21;;;6.27;67.66
77005;BME280;67261;53.132;18.006;2023-04-09T23:42:36;102144.11;;;6.26;67.74
77005;BME280;67261;53.132;18.006;2023-04-09T23:45:04;102147.59;;;6.23;67.51
77005;BME280;67261;53.132;18.006;2023-04-09T23:47:34;102147.87;;;6.21;67.45
77005;BME280;67261;53.132;18.006;2023-04-09T23:50:02;102146.95;;;6.19;67.34
77005;BME280;67261;53.132;18.006;2023-04-09T23:52:34;102146.50;;;6.18;67.22
77005;BME280;67261;53.132;18.006;2023-04-09T23:55:02;102141.33;;;6.16;67.43
77005;BME280;67261;53.132;18.006;2023-04-09T23:57:29;102141.04;;;6.15;67.73
77005;BME280;67261;53.132;18.006;2023-04-09T23:59:57;102141.77;;;6.12;67.71
